Ship Status Report: callsign BATFR34

sailwx.info

Track history (hours):
 
Tides and Currents Weather Stations Pressure Air Temp Water Temp Dewpoint Dewpoint Depression Visibility Wind Speed Wind Dir Waves Ship Positions

Callsign BATFR34 (name unknown)

Last reported at 2017-Aug-24 10:00 UTC. Time now 2017-Aug-24 10:30 UTC.
Position N 48°42' W 006°18'.

Wind from 300 at 6 knots

Barometer 1019.4 mb
Air temperature 17.0 ° C
Water temperature 18.9 ° C

Date/timePositionNaut miles runAvg speedWind from/ knotsBaromVisibWave heightAir tempDewpointWater temp
2017-Aug-24 10:00N 48°42' W 006°18'6 6.0 300 / 61019.4 17.0 18.9
2017-Aug-24 09:00N 48°48' W 006°18'0 0.0 290 / 71019.1 17.4 18.9
2017-Aug-24 08:00N 48°48' W 006°18'0 0.0 290 / 71018.8 17.5 18.7
2017-Aug-24 07:00N 48°48' W 006°18'4 4.0 290 / 91018.3 16.9 18.7
2017-Aug-24 06:00N 48°48' W 006°24'0 0.0 290 / 81018.1 16.9 18.7
2017-Aug-24 05:00N 48°48' W 006°24'6 6.0 280 / 121017.9 16.7 18.7
2017-Aug-24 04:00N 48°42' W 006°24'0 0.0 230 / 81018.0 16.9 18.7
2017-Aug-24 03:00N 48°42' W 006°24'6 6.0 270 / 91018.4 16.9 18.7
2017-Aug-24 02:00N 48°36' W 006°24'0 0.0 250 / 81018.6 16.7 18.9
2017-Aug-24 01:00N 48°36' W 006°24'0 0.0 270 / 81018.9 16.9 18.9
2017-Aug-24 00:00N 48°36' W 006°24'4 4.0 270 / 81019.1 17.0 18.7
2017-Aug-23 23:00N 48°36' W 006°18'0 0.0 300 / 81019.2 17.0 18.9
2017-Aug-23 22:00N 48°36' W 006°18'7 7.2 280 / 81019.2 17.2 18.9
2017-Aug-23 21:00N 48°30' W 006°24'1010.0 280 / 91018.9 17.0 18.9
2017-Aug-23 20:00N 48°24' W 006°36'7 7.2 280 / 121018.6 17.2 19.0
2017-Aug-23 19:00N 48°18' W 006°42'1312.6 270 / 121018.3 17.2 19.0
2017-Aug-23 18:00N 48°06' W 006°48'7 7.2 270 / 91018.3 17.4 18.9
2017-Aug-23 17:00N 48°00' W 006°54'6 6.0 260 / 111018.4 17.7 18.7
2017-Aug-23 16:00N 47°54' W 006°54'0 0.0 250 / 91018.4 17.7 18.7
2017-Aug-23 15:00N 47°54' W 006°54'6 6.0 240 / 91018.8 5.4 17.7 18.5
2017-Aug-23 14:00N 47°48' W 006°54'0 0.0 240 / 71019.0 17.9 18.9
2017-Aug-23 13:00N 47°48' W 006°54'0 0.0 240 / 71019.0 17.7 18.7
2017-Aug-23 12:00N 47°48' W 006°54'4 4.0 250 / 71019.1 17.7 18.5
2017-Aug-23 11:00N 47°48' W 006°48'0 0.0 250 / 61019.1 17.7 18.5
2017-Aug-23 10:00N 47°48' W 006°48'0 0.0 270 / 81019.0 17.2 18.5
2017-Aug-23 09:00N 47°48' W 006°48'6 6.0 280 / 91018.4 17.0 18.4
2017-Aug-23 08:00N 47°54' W 006°48'6 6.0 290 / 121018.0 16.9 18.4
2017-Aug-23 07:00N 48°00' W 006°48'0 0.0 290 / 101017.1 16.9 18.4
2017-Aug-23 06:00N 48°00' W 006°48'6 6.0 270 / 101016.8 17.0 18.4
2017-Aug-23 05:00N 48°06' W 006°48'7 7.2 260 / 131016.3 16.9 18.5
2017-Aug-23 04:00N 48°00' W 006°54'0 0.0 250 / 161016.2 17.0 18.4
2017-Aug-23 03:00N 48°00' W 006°54'6 6.0 260 / 121016.3 17.0 18.4
2017-Aug-23 02:00N 47°54' W 006°54'0 0.0 260 / 121016.6 17.0 18.4
2017-Aug-23 01:00N 47°54' W 006°54'6 6.0 270 / 141016.8 16.9 18.4
2017-Aug-23 00:00N 47°48' W 006°54'0 0.0 270 / 121016.9 16.9 18.4
2017-Aug-22 23:00N 47°48' W 006°54'4 4.0 270 / 131016.9 17.0 18.2
2017-Aug-22 22:00N 47°48' W 006°48'0 0.0 300 / 131016.8 17.0 18.4
2017-Aug-22 21:00N 47°48' W 006°48'0 0.0 300 / 181016.4 18.4 18.5
2017-Aug-22 20:00N 47°48' W 006°48'6 6.0 300 / 191015.6 19.2 18.5
2017-Aug-22 19:00N 47°54' W 006°48'6 6.0 280 / 131015.0 17.5 18.5
2017-Aug-22 18:00N 48°00' W 006°48'0 0.0 280 / 131014.7 0.5 17.5 18.5
2017-Aug-22 17:00N 48°00' W 006°48'0 0.0 270 / 101014.3 17.9 18.5
2017-Aug-22 16:00N 48°00' W 006°48'6 6.0 260 / 141014.0 17.5 18.5
2017-Aug-22 15:00N 47°54' W 006°48'0 0.0 260 / 131014.1 2.2 17.5 18.5
2017-Aug-22 14:00N 47°54' W 006°48'6 6.0 280 / 101014.3 17.7 18.7
2017-Aug-22 13:00N 47°48' W 006°48'7 7.2 280 / 101014.3 17.9 18.7
2017-Aug-22 12:00N 47°42' W 006°42'0 0.0 260 / 111014.1 18.0 18.9
2017-Aug-22 11:00N 47°42' W 006°42'0 0.0 260 / 81014.1 18.4 18.7
2017-Aug-22 10:00N 47°42' W 006°42'6 6.0 200 / 61014.0 18.2 18.7
2017-Aug-22 09:00N 47°48' W 006°42'4 4.0 140 / 91013.8 2.2 18.2 18.5
2017-Aug-22 08:00N 47°48' W 006°36'0 0.0 130 / 121013.4 18.2 18.5
2017-Aug-22 07:00N 47°48' W 006°36'6 6.0 170 / 91013.5 18.5 18.4
2017-Aug-22 06:00N 47°54' W 006°36'0 0.0 110 / 181013.0 18.7 18.4
2017-Aug-22 05:00N 47°54' W 006°36'0 0.0 120 / 131013.3 18.5 18.2
2017-Aug-22 04:00N 47°54' W 006°36'6 6.0 120 / 141013.5 18.4 18.2
2017-Aug-22 03:00N 47°48' W 006°36'0 0.0 110 / 131014.6 18.7 18.5
2017-Aug-22 02:00N 47°48' W 006°36'7 7.2 090 / 141014.5 17.9 18.5
2017-Aug-22 01:00N 47°42' W 006°42'0 0.0 090 / 121015.9 17.7 18.7
2017-Aug-22 00:00N 47°42' W 006°42'6 6.0 080 / 101016.7 17.7 18.7
2017-Aug-21 23:00N 47°36' W 006°42'4 4.0 080 / 91017.1 17.4 18.7
2017-Aug-21 22:00N 47°36' W 006°36'4 4.0 080 / 131017.6 18.0 18.7
2017-Aug-21 21:00N 47°36' W 006°30'7 7.2 080 / 131017.8 17.0 18.7
2017-Aug-21 20:00N 47°42' W 006°24'0 0.0 080 / 121018.1 16.7 18.7
2017-Aug-21 19:00N 47°42' W 006°24'6 6.0 070 / 121018.2 16.9 18.7
2017-Aug-21 18:00N 47°48' W 006°24'4 4.0 090 / 111018.4 17.2 18.7
2017-Aug-21 17:00N 47°48' W 006°30'0 0.0 110 / 141019.0 17.2 18.7
2017-Aug-21 16:00N 47°48' W 006°30'6 6.0 120 / 121019.4 17.2 18.7
2017-Aug-21 15:00N 47°42' W 006°30'4 4.0 110 / 131019.7 17.5 18.9
2017-Aug-21 14:00N 47°42' W 006°36'4 4.0 120 / 141020.2 17.2 18.7
2017-Aug-21 13:00N 47°42' W 006°42'0 0.0 120 / 131020.9 17.2 18.7
2017-Aug-21 12:00N 47°42' W 006°42'6 6.0 120 / 131021.5 16.9 18.5
2017-Aug-21 11:00N 47°36' W 006°42'4 4.0 110 / 131022.1 18.4 18.4
2017-Aug-21 10:00N 47°36' W 006°36'0 0.0 110 / 101022.4 17.0 18.5
2017-Aug-21 09:00N 47°36' W 006°36'4 4.0 100 / 71022.5 2.2 16.4 18.5
2017-Aug-21 08:00N 47°36' W 006°30'7 7.2 110 / 81022.8 16.2 18.4
2017-Aug-21 07:00N 47°42' W 006°24'0 0.0 120 / 71022.9 16.2 18.5
2017-Aug-21 06:00N 47°42' W 006°24'6 6.0 170 / 51022.7 16.5 18.7
2017-Aug-21 05:00N 47°48' W 006°24'0 0.0 170 / 31022.9 16.5 18.4
2017-Aug-21 04:00N 47°48' W 006°24'4 4.0 200 / 61023.0 16.7 18.5
2017-Aug-21 03:00N 47°48' W 006°30'6 6.0 200 / 51023.2 16.7 18.4
2017-Aug-21 02:00N 47°42' W 006°30'4 4.0 220 / 81023.6 16.5 18.5
2017-Aug-21 01:00N 47°42' W 006°36'4 4.0 220 / 71024.1 16.5 18.5
2017-Aug-21 00:00N 47°42' W 006°42'0 0.0 230 / 61024.4 17.0 18.5
2017-Aug-20 23:00N 47°42' W 006°42'6 6.0 250 / 61024.8 16.9 18.5
2017-Aug-20 22:00N 47°36' W 006°42'4 4.0 220 / 111025.1 16.7 18.4
2017-Aug-20 21:00N 47°36' W 006°36'4 4.0 200 / 121025.1 17.0 18.5
2017-Aug-20 20:00N 47°36' W 006°30'6 6.0 230 / 91025.2 17.0 18.7
2017-Aug-20 19:00N 47°42' W 006°30'0 0.0 230 / 111024.7 16.9 18.7
2017-Aug-20 18:00N 47°42' W 006°30'7 7.2 240 / 121024.6 16.9 18.5
2017-Aug-20 17:00N 47°48' W 006°24'0 0.0 230 / 151024.3 17.4 18.5
2017-Aug-20 16:00N 47°48' W 006°24'0 0.0 240 / 151024.4 17.5 18.5
2017-Aug-20 15:00N 47°48' W 006°24'0 0.0 240 / 171024.7 17.7 18.5
2017-Aug-20 14:00N 47°48' W 006°24'7 7.2 240 / 181025.0 17.4 18.4
2017-Aug-20 13:00N 47°42' W 006°30'0 0.0 230 / 181025.0 17.7 18.5
2017-Aug-20 12:00N 47°42' W 006°30'6 6.0 220 / 161025.3 17.5 18.7
2017-Aug-20 11:00N 47°36' W 006°30'0 0.0 210 / 191025.5 19.9 18.5
2017-Aug-20 10:00N 47°36' W 006°30'4 4.0 210 / 171025.6 16.2 18.5
2017-Aug-20 09:00N 47°36' W 006°24'0 0.0 200 / 191025.5 2.2 16.7 18.7
2017-Aug-20 08:00N 47°36' W 006°24'4 4.0 220 / 151025.3 17.5 18.7
2017-Aug-20 07:00N 47°36' W 006°18'6 6.0 220 / 151024.9 17.4 18.7
2017-Aug-20 06:00N 47°42' W 006°18'4 4.0 230 / 171024.6 17.217.018.7
2017-Aug-20 05:00N 47°42' W 006°24'6 6.0 220 / 131024.4 17.2 18.5
2017-Aug-20 04:00N 47°48' W 006°24'0 0.0 210 / 141023.9 17.0 18.5
2017-Aug-20 03:00N 47°48' W 006°24'0 0.0 230 / 121024.7 17.016.918.5
2017-Aug-20 02:00N 47°48' W 006°24'6 6.0 210 / 101024.7 16.916.718.5
2017-Aug-20 01:00N 47°42' W 006°24'4 4.0 210 / 91025.2 16.916.718.5
2017-Aug-20 00:00N 47°42' W 006°30'6 6.0 210 / 71025.9 17.216.918.7
2017-Aug-19 23:00N 47°36' W 006°30'0 0.0 230 / 81026.3 16.916.718.5
2017-Aug-19 22:00N 47°36' W 006°30'7 7.2 240 / 71026.4 17.016.418.9
2017-Aug-19 21:00N 47°30' W 006°24'0 0.0 240 / 101026.5 16.916.718.9
2017-Aug-19 20:00N 47°30' W 006°24'4 4.1 240 / 71026.2 16.915.918.9
2017-Aug-19 19:00N 47°30' W 006°18'0 0.0 250 / 71025.9 16.910.718.9
2017-Aug-19 18:00N 47°30' W 006°18'4 4.1 280 / 51025.8 17.010.918.9
2017-Aug-19 17:00N 47°30' W 006°12'6 6.0 270 / 81025.6 17.210.718.9
2017-Aug-19 16:00N 47°36' W 006°12'0 0.0 280 / 91025.5 16.912.019.0
2017-Aug-19 15:00N 47°36' W 006°12'6 6.0 280 / 91025.6 16.713.219.2
2017-Aug-19 14:00N 47°42' W 006°12'6 6.0 280 / 81025.4 16.711.419.2
2017-Aug-19 13:00N 47°36' W 006°12'0 0.0 270 / 51025.4 17.0 9.719.0
2017-Aug-19 12:00N 47°36' W 006°12'4 4.0 290 / 81025.2 16.5 9.718.9
2017-Aug-19 11:00N 47°36' W 006°18'6 6.0 290 / 81025.5 16.513.218.7
2017-Aug-19 10:00N 47°30' W 006°18'0 0.0 270 / 111025.5 16.212.718.2
2017-Aug-19 09:00N 47°30' W 006°18'7 7.2 310 / 61025.4 16.413.917.9
2017-Aug-19 08:00N 47°24' W 006°12'0 0.0 280 / 101025.1 16.215.917.7
2017-Aug-19 07:00N 47°24' W 006°12'0 0.0 310 / 91024.6 16.214.217.9
2017-Aug-19 06:00N 47°24' W 006°12'0 0.0 320 / 101024.2 16.215.417.9
2017-Aug-19 05:00N 47°24' W 006°12'6 6.0 310 / 111023.8 17.710.518.2
2017-Aug-19 04:00N 47°30' W 006°12'0 0.0 300 / 131023.6 20.413.017.9
2017-Aug-19 03:00N 47°30' W 006°12'6 6.0 310 / 131023.2 16.512.418.4
2017-Aug-19 02:00N 47°36' W 006°12'4 4.0 310 / 161023.1 17.411.218.2
2017-Aug-19 01:00N 47°36' W 006°18'6 6.0 280 / 151023.1 16.216.018.7
2017-Aug-19 00:00N 47°30' W 006°18'0 0.0 280 / 151023.2 16.215.718.2
2017-Aug-18 23:00N 47°30' W 006°18'4 4.1 300 / 131023.4 16.215.917.7
2017-Aug-18 22:00N 47°30' W 006°12'6 6.0 290 / 151023.3 16.416.217.9
2017-Aug-18 21:00N 47°24' W 006°12'0 0.0 290 / 151023.5 16.416.218.2
2017-Aug-18 20:00N 47°24' W 006°12'4 4.1 310 / 151023.2 16.516.418.5
2017-Aug-18 19:00N 47°24' W 006°06'4 4.1 310 / 141022.3 16.716.418.5
2017-Aug-18 18:00N 47°24' W 006°00'6 6.0 300 / 141021.9 16.916.718.4
2017-Aug-18 17:00N 47°18' W 006°00'4 4.1 300 / 151021.6 16.916.718.2
2017-Aug-18 16:00N 47°18' W 005°54'7 7.2 300 / 161021.2 17.216.018.4
2017-Aug-18 15:00N 47°24' W 005°48'0 0.0 300 / 161020.7 17.216.518.4
2017-Aug-18 14:00N 47°24' W 005°48'7 7.2 290 / 181020.7 17.015.218.9
2017-Aug-18 13:00N 47°18' W 005°54'6 6.0 290 / 141020.2 17.016.218.4
2017-Aug-18 12:00N 47°24' W 005°54'4 4.1 290 / 151019.9 17.715.518.4
2017-Aug-18 11:00N 47°24' W 006°00'0 0.0 300 / 151019.4 23.214.918.5
2017-Aug-18 10:00N 47°24' W 006°00'4 4.1 300 / 161019.3 23.213.418.4
2017-Aug-18 09:00N 47°24' W 006°06'0 0.0 300 / 121019.1 18.518.418.0
2017-Aug-18 08:00N 47°24' W 006°06'4 4.1 290 / 111018.4 17.4 17.7
2017-Aug-18 07:00N 47°24' W 006°12'0 0.0 310 / 131017.5 16.7 17.9
2017-Aug-18 06:00N 47°24' W 006°12'4 4.1 310 / 101016.6 17.0 18.2
2017-Aug-18 05:00N 47°24' W 006°06'0 0.0 300 / 91016.1 16.9 18.4
2017-Aug-18 04:00N 47°24' W 006°06'7 7.2 260 / 111015.8 17.4 18.7
2017-Aug-18 03:00N 47°18' W 006°00'7 7.2 250 / 121016.2 17.5 18.7
2017-Aug-18 02:00N 47°24' W 005°54'0 0.0 260 / 121016.1 17.5 18.7
2017-Aug-18 01:00N 47°24' W 005°54'6 6.0 250 / 121016.1 17.7 18.4
2017-Aug-18 00:00N 47°18' W 005°54'7 7.2 260 / 101016.4 17.9 18.7
2017-Aug-17 23:00N 47°24' W 006°00'4 4.1 260 / 131016.6 21.7 18.9
2017-Aug-17 22:00N 47°24' W 006°06'0 0.0 250 / 121016.6 17.9 18.9
2017-Aug-17 21:00N 47°24' W 006°06'4 4.1 240 / 111016.5 17.7 18.5
2017-Aug-17 20:00N 47°24' W 006°12'0 0.0 250 / 101016.3 17.7 18.4
2017-Aug-17 19:00N 47°24' W 006°12'0 0.0 230 / 81016.1 17.7 18.9
2017-Aug-17 18:00N 47°24' W 006°12'4 4.1 200 / 81016.4 17.7 18.7
2017-Aug-17 17:00N 47°24' W 006°06'0 0.0 200 / 91016.4 17.7 18.7
2017-Aug-17 16:00N 47°24' W 006°06'4 4.1 210 / 81016.6 18.0 18.9
2017-Aug-17 15:00N 47°24' W 006°00'4 4.1 230 / 81016.9 18.0 18.7
2017-Aug-17 14:00N 47°24' W 005°54'4 4.1 230 / 91016.6 17.9 18.7
2017-Aug-17 13:00N 47°24' W 006°00'6 6.0 230 / 91016.7 17.9 18.5
2017-Aug-17 12:00N 47°30' W 006°00'4 4.1 220 / 101016.8 17.7 18.0
2017-Aug-17 11:00N 47°30' W 006°06'0 0.0 240 / 81016.7 17.2 17.7
2017-Aug-17 10:00N 47°30' W 006°06'4 4.1 230 / 91016.7 17.4 17.9
2017-Aug-17 09:00N 47°30' W 006°12'6 6.0 210 / 81016.7 17.4 17.9
2017-Aug-17 08:00N 47°24' W 006°12'4 4.1 220 / 111016.8 17.4 17.7
2017-Aug-17 07:00N 47°24' W 006°06'0 0.0 230 / 121016.4 17.4 17.7
2017-Aug-17 06:00N 47°24' W 006°06'4 4.1 250 / 101015.8 17.5 18.2
2017-Aug-17 05:00N 47°24' W 006°00'4 4.1 230 / 121015.5 17.7 18.2
2017-Aug-17 04:00N 47°24' W 005°54'0 0.0 230 / 151015.4 17.7 18.2
2017-Aug-17 03:00N 47°24' W 005°54'4 4.1 230 / 161015.6 17.7 18.2
2017-Aug-17 02:00N 47°24' W 005°48'0 0.0 260 / 171015.7 17.5 18.0
2017-Aug-17 01:00N 47°24' W 005°48'7 7.2 260 / 181015.5 17.7 18.0
2017-Aug-17 00:00N 47°30' W 005°54'0 0.0 230 / 171015.4 17.9 17.9
2017-Aug-16 23:00N 47°30' W 005°54'4 4.1 210 / 231015.5 17.9 17.9
2017-Aug-16 22:00N 47°30' W 005°48'6 6.0 200 / 201016.1 17.7 17.9
2017-Aug-16 21:00N 47°24' W 005°48'0 0.0 210 / 191016.5 17.7 18.0
2017-Aug-16 20:00N 47°24' W 005°48'4 4.1 200 / 201016.6 17.9 18.4
2017-Aug-16 19:00N 47°24' W 005°42'4 4.1 200 / 191017.1 17.9 18.4
2017-Aug-16 18:00N 47°24' W 005°36'0 0.0 210 / 181017.5 17.9 18.5
2017-Aug-16 17:00N 47°24' W 005°36'1010.1 200 / 191018.0 17.9 18.9
2017-Aug-16 16:00N 47°30' W 005°24'1212.2 190 / 191018.3 17.2 18.9
2017-Aug-16 15:00N 47°30' W 005°06'1010.1 180 / 151019.1 17.9 18.9
2017-Aug-16 14:00N 47°36' W 004°54'1010.1 170 / 131019.6 17.5 18.9
2017-Aug-16 13:00N 47°42' W 004°42'8 8.1 170 / 141020.2 17.4 18.2
2017-Aug-16 12:00N 47°42' W 004°30'1010.1 180 / 91020.7 16.9 17.7
2017-Aug-16 11:00N 47°48' W 004°18'   200 / 101020.9 17.2 17.2
Track history (hours):
 
Tides and Currents Weather Stations Pressure Air Temp Water Temp Dewpoint Dewpoint Depression Visibility Wind Speed Wind Dir Waves Ship Positions

Callsign BATFR34 (name unknown)

Last reported at 2017-Aug-24 10:00 UTC. Time now 2017-Aug-24 10:30 UTC.
Position N 48°42' W 006°18'.

Wind from 300 at 6 knots

Barometer 1019.4 mb
Air temperature 17.0 ° C
Water temperature 18.9 ° C

Date/timePositionNaut miles runAvg speedWind from/ knotsBaromVisibWave heightAir tempDewpointWater temp
2017-Aug-24 10:00N 48°42' W 006°18'6 6.0 300 / 61019.4 17.0 18.9
2017-Aug-24 09:00N 48°48' W 006°18'0 0.0 290 / 71019.1 17.4 18.9
2017-Aug-24 08:00N 48°48' W 006°18'0 0.0 290 / 71018.8 17.5 18.7
2017-Aug-24 07:00N 48°48' W 006°18'4 4.0 290 / 91018.3 16.9 18.7
2017-Aug-24 06:00N 48°48' W 006°24'0 0.0 290 / 81018.1 16.9 18.7
2017-Aug-24 05:00N 48°48' W 006°24'6 6.0 280 / 121017.9 16.7 18.7
2017-Aug-24 04:00N 48°42' W 006°24'0 0.0 230 / 81018.0 16.9 18.7
2017-Aug-24 03:00N 48°42' W 006°24'6 6.0 270 / 91018.4 16.9 18.7
2017-Aug-24 02:00N 48°36' W 006°24'0 0.0 250 / 81018.6 16.7 18.9
2017-Aug-24 01:00N 48°36' W 006°24'0 0.0 270 / 81018.9 16.9 18.9
2017-Aug-24 00:00N 48°36' W 006°24'4 4.0 270 / 81019.1 17.0 18.7
2017-Aug-23 23:00N 48°36' W 006°18'0 0.0 300 / 81019.2 17.0 18.9
2017-Aug-23 22:00N 48°36' W 006°18'7 7.2 280 / 81019.2 17.2 18.9
2017-Aug-23 21:00N 48°30' W 006°24'1010.0 280 / 91018.9 17.0 18.9
2017-Aug-23 20:00N 48°24' W 006°36'7 7.2 280 / 121018.6 17.2 19.0
2017-Aug-23 19:00N 48°18' W 006°42'1312.6 270 / 121018.3 17.2 19.0
2017-Aug-23 18:00N 48°06' W 006°48'7 7.2 270 / 91018.3 17.4 18.9
2017-Aug-23 17:00N 48°00' W 006°54'6 6.0 260 / 111018.4 17.7 18.7
2017-Aug-23 16:00N 47°54' W 006°54'0 0.0 250 / 91018.4 17.7 18.7
2017-Aug-23 15:00N 47°54' W 006°54'6 6.0 240 / 91018.8 5.4 17.7 18.5
2017-Aug-23 14:00N 47°48' W 006°54'0 0.0 240 / 71019.0 17.9 18.9
2017-Aug-23 13:00N 47°48' W 006°54'0 0.0 240 / 71019.0 17.7 18.7
2017-Aug-23 12:00N 47°48' W 006°54'4 4.0 250 / 71019.1 17.7 18.5
2017-Aug-23 11:00N 47°48' W 006°48'0 0.0 250 / 61019.1 17.7 18.5
2017-Aug-23 10:00N 47°48' W 006°48'0 0.0 270 / 81019.0 17.2 18.5
2017-Aug-23 09:00N 47°48' W 006°48'6 6.0 280 / 91018.4 17.0 18.4
2017-Aug-23 08:00N 47°54' W 006°48'6 6.0 290 / 121018.0 16.9 18.4
2017-Aug-23 07:00N 48°00' W 006°48'0 0.0 290 / 101017.1 16.9 18.4
2017-Aug-23 06:00N 48°00' W 006°48'6 6.0 270 / 101016.8 17.0 18.4
2017-Aug-23 05:00N 48°06' W 006°48'7 7.2 260 / 131016.3 16.9 18.5
2017-Aug-23 04:00N 48°00' W 006°54'0 0.0 250 / 161016.2 17.0 18.4
2017-Aug-23 03:00N 48°00' W 006°54'6 6.0 260 / 121016.3 17.0 18.4
2017-Aug-23 02:00N 47°54' W 006°54'0 0.0 260 / 121016.6 17.0 18.4
2017-Aug-23 01:00N 47°54' W 006°54'6 6.0 270 / 141016.8 16.9 18.4
2017-Aug-23 00:00N 47°48' W 006°54'0 0.0 270 / 121016.9 16.9 18.4
2017-Aug-22 23:00N 47°48' W 006°54'4 4.0 270 / 131016.9 17.0 18.2
2017-Aug-22 22:00N 47°48' W 006°48'0 0.0 300 / 131016.8 17.0 18.4
2017-Aug-22 21:00N 47°48' W 006°48'0 0.0 300 / 181016.4 18.4 18.5
2017-Aug-22 20:00N 47°48' W 006°48'6 6.0 300 / 191015.6 19.2 18.5
2017-Aug-22 19:00N 47°54' W 006°48'6 6.0 280 / 131015.0 17.5 18.5
2017-Aug-22 18:00N 48°00' W 006°48'0 0.0 280 / 131014.7 0.5 17.5 18.5
2017-Aug-22 17:00N 48°00' W 006°48'0 0.0 270 / 101014.3 17.9 18.5
2017-Aug-22 16:00N 48°00' W 006°48'6 6.0 260 / 141014.0 17.5 18.5
2017-Aug-22 15:00N 47°54' W 006°48'0 0.0 260 / 131014.1 2.2 17.5 18.5
2017-Aug-22 14:00N 47°54' W 006°48'6 6.0 280 / 101014.3 17.7 18.7
2017-Aug-22 13:00N 47°48' W 006°48'7 7.2 280 / 101014.3 17.9 18.7
2017-Aug-22 12:00N 47°42' W 006°42'0 0.0 260 / 111014.1 18.0 18.9
2017-Aug-22 11:00N 47°42' W 006°42'0 0.0 260 / 81014.1 18.4 18.7
2017-Aug-22 10:00N 47°42' W 006°42'6 6.0 200 / 61014.0 18.2 18.7
2017-Aug-22 09:00N 47°48' W 006°42'4 4.0 140 / 91013.8 2.2 18.2 18.5
2017-Aug-22 08:00N 47°48' W 006°36'0 0.0 130 / 121013.4 18.2 18.5
2017-Aug-22 07:00N 47°48' W 006°36'6 6.0 170 / 91013.5 18.5 18.4
2017-Aug-22 06:00N 47°54' W 006°36'0 0.0 110 / 181013.0 18.7 18.4
2017-Aug-22 05:00N 47°54' W 006°36'0 0.0 120 / 131013.3 18.5 18.2
2017-Aug-22 04:00N 47°54' W 006°36'6 6.0 120 / 141013.5 18.4 18.2
2017-Aug-22 03:00N 47°48' W 006°36'0 0.0 110 / 131014.6 18.7 18.5
2017-Aug-22 02:00N 47°48' W 006°36'7 7.2 090 / 141014.5 17.9 18.5
2017-Aug-22 01:00N 47°42' W 006°42'0 0.0 090 / 121015.9 17.7 18.7
2017-Aug-22 00:00N 47°42' W 006°42'6 6.0 080 / 101016.7 17.7 18.7
2017-Aug-21 23:00N 47°36' W 006°42'4 4.0 080 / 91017.1 17.4 18.7
2017-Aug-21 22:00N 47°36' W 006°36'4 4.0 080 / 131017.6 18.0 18.7
2017-Aug-21 21:00N 47°36' W 006°30'7 7.2 080 / 131017.8 17.0 18.7
2017-Aug-21 20:00N 47°42' W 006°24'0 0.0 080 / 121018.1 16.7 18.7
2017-Aug-21 19:00N 47°42' W 006°24'6 6.0 070 / 121018.2 16.9 18.7
2017-Aug-21 18:00N 47°48' W 006°24'4 4.0 090 / 111018.4 17.2 18.7
2017-Aug-21 17:00N 47°48' W 006°30'0 0.0 110 / 141019.0 17.2 18.7
2017-Aug-21 16:00N 47°48' W 006°30'6 6.0 120 / 121019.4 17.2 18.7
2017-Aug-21 15:00N 47°42' W 006°30'4 4.0 110 / 131019.7 17.5 18.9
2017-Aug-21 14:00N 47°42' W 006°36'4 4.0 120 / 141020.2 17.2 18.7
2017-Aug-21 13:00N 47°42' W 006°42'0 0.0 120 / 131020.9 17.2 18.7
2017-Aug-21 12:00N 47°42' W 006°42'6 6.0 120 / 131021.5 16.9 18.5
2017-Aug-21 11:00N 47°36' W 006°42'4 4.0 110 / 131022.1 18.4 18.4
2017-Aug-21 10:00N 47°36' W 006°36'0 0.0 110 / 101022.4 17.0 18.5
2017-Aug-21 09:00N 47°36' W 006°36'4 4.0 100 / 71022.5 2.2 16.4 18.5
2017-Aug-21 08:00N 47°36' W 006°30'7 7.2 110 / 81022.8 16.2 18.4
2017-Aug-21 07:00N 47°42' W 006°24'0 0.0 120 / 71022.9 16.2 18.5
2017-Aug-21 06:00N 47°42' W 006°24'6 6.0 170 / 51022.7 16.5 18.7
2017-Aug-21 05:00N 47°48' W 006°24'0 0.0 170 / 31022.9 16.5 18.4
2017-Aug-21 04:00N 47°48' W 006°24'4 4.0 200 / 61023.0 16.7 18.5
2017-Aug-21 03:00N 47°48' W 006°30'6 6.0 200 / 51023.2 16.7 18.4
2017-Aug-21 02:00N 47°42' W 006°30'4 4.0 220 / 81023.6 16.5 18.5
2017-Aug-21 01:00N 47°42' W 006°36'4 4.0 220 / 71024.1 16.5 18.5
2017-Aug-21 00:00N 47°42' W 006°42'0 0.0 230 / 61024.4 17.0 18.5
2017-Aug-20 23:00N 47°42' W 006°42'6 6.0 250 / 61024.8 16.9 18.5
2017-Aug-20 22:00N 47°36' W 006°42'4 4.0 220 / 111025.1 16.7 18.4
2017-Aug-20 21:00N 47°36' W 006°36'4 4.0 200 / 121025.1 17.0 18.5
2017-Aug-20 20:00N 47°36' W 006°30'6 6.0 230 / 91025.2 17.0 18.7
2017-Aug-20 19:00N 47°42' W 006°30'0 0.0 230 / 111024.7 16.9 18.7
2017-Aug-20 18:00N 47°42' W 006°30'7 7.2 240 / 121024.6 16.9 18.5
2017-Aug-20 17:00N 47°48' W 006°24'0 0.0 230 / 151024.3 17.4 18.5
2017-Aug-20 16:00N 47°48' W 006°24'0 0.0 240 / 151024.4 17.5 18.5
2017-Aug-20 15:00N 47°48' W 006°24'0 0.0 240 / 171024.7 17.7 18.5
2017-Aug-20 14:00N 47°48' W 006°24'7 7.2 240 / 181025.0 17.4 18.4
2017-Aug-20 13:00N 47°42' W 006°30'0 0.0 230 / 181025.0 17.7 18.5
2017-Aug-20 12:00N 47°42' W 006°30'6 6.0 220 / 161025.3 17.5 18.7
2017-Aug-20 11:00N 47°36' W 006°30'0 0.0 210 / 191025.5 19.9 18.5
2017-Aug-20 10:00N 47°36' W 006°30'4 4.0 210 / 171025.6 16.2 18.5
2017-Aug-20 09:00N 47°36' W 006°24'0 0.0 200 / 191025.5 2.2 16.7 18.7
2017-Aug-20 08:00N 47°36' W 006°24'4 4.0 220 / 151025.3 17.5 18.7
2017-Aug-20 07:00N 47°36' W 006°18'6 6.0 220 / 151024.9 17.4 18.7
2017-Aug-20 06:00N 47°42' W 006°18'4 4.0 230 / 171024.6 17.217.018.7
2017-Aug-20 05:00N 47°42' W 006°24'6 6.0 220 / 131024.4 17.2 18.5
2017-Aug-20 04:00N 47°48' W 006°24'0 0.0 210 / 141023.9 17.0 18.5
2017-Aug-20 03:00N 47°48' W 006°24'0 0.0 230 / 121024.7 17.016.918.5
2017-Aug-20 02:00N 47°48' W 006°24'6 6.0 210 / 101024.7 16.916.718.5
2017-Aug-20 01:00N 47°42' W 006°24'4 4.0 210 / 91025.2 16.916.718.5
2017-Aug-20 00:00N 47°42' W 006°30'6 6.0 210 / 71025.9 17.216.918.7
2017-Aug-19 23:00N 47°36' W 006°30'0 0.0 230 / 81026.3 16.916.718.5
2017-Aug-19 22:00N 47°36' W 006°30'7 7.2 240 / 71026.4 17.016.418.9
2017-Aug-19 21:00N 47°30' W 006°24'0 0.0 240 / 101026.5 16.916.718.9
2017-Aug-19 20:00N 47°30' W 006°24'4 4.1 240 / 71026.2 16.915.918.9
2017-Aug-19 19:00N 47°30' W 006°18'0 0.0 250 / 71025.9 16.910.718.9
2017-Aug-19 18:00N 47°30' W 006°18'4 4.1 280 / 51025.8 17.010.918.9
2017-Aug-19 17:00N 47°30' W 006°12'6 6.0 270 / 81025.6 17.210.718.9
2017-Aug-19 16:00N 47°36' W 006°12'0 0.0 280 / 91025.5 16.912.019.0
2017-Aug-19 15:00N 47°36' W 006°12'6 6.0 280 / 91025.6 16.713.219.2
2017-Aug-19 14:00N 47°42' W 006°12'6 6.0 280 / 81025.4 16.711.419.2
2017-Aug-19 13:00N 47°36' W 006°12'0 0.0 270 / 51025.4 17.0 9.719.0
2017-Aug-19 12:00N 47°36' W 006°12'4 4.0 290 / 81025.2 16.5 9.718.9
2017-Aug-19 11:00N 47°36' W 006°18'6 6.0 290 / 81025.5 16.513.218.7
2017-Aug-19 10:00N 47°30' W 006°18'0 0.0 270 / 111025.5 16.212.718.2
2017-Aug-19 09:00N 47°30' W 006°18'7 7.2 310 / 61025.4 16.413.917.9
2017-Aug-19 08:00N 47°24' W 006°12'0 0.0 280 / 101025.1 16.215.917.7
2017-Aug-19 07:00N 47°24' W 006°12'0 0.0 310 / 91024.6 16.214.217.9
2017-Aug-19 06:00N 47°24' W 006°12'0 0.0 320 / 101024.2 16.215.417.9
2017-Aug-19 05:00N 47°24' W 006°12'6 6.0 310 / 111023.8 17.710.518.2
2017-Aug-19 04:00N 47°30' W 006°12'0 0.0 300 / 131023.6 20.413.017.9
2017-Aug-19 03:00N 47°30' W 006°12'6 6.0 310 / 131023.2 16.512.418.4
2017-Aug-19 02:00N 47°36' W 006°12'4 4.0 310 / 161023.1 17.411.218.2
2017-Aug-19 01:00N 47°36' W 006°18'6 6.0 280 / 151023.1 16.216.018.7
2017-Aug-19 00:00N 47°30' W 006°18'0 0.0 280 / 151023.2 16.215.718.2
2017-Aug-18 23:00N 47°30' W 006°18'4 4.1 300 / 131023.4 16.215.917.7
2017-Aug-18 22:00N 47°30' W 006°12'6 6.0 290 / 151023.3 16.416.217.9
2017-Aug-18 21:00N 47°24' W 006°12'0 0.0 290 / 151023.5 16.416.218.2
2017-Aug-18 20:00N 47°24' W 006°12'4 4.1 310 / 151023.2 16.516.418.5
2017-Aug-18 19:00N 47°24' W 006°06'4 4.1 310 / 141022.3 16.716.418.5
2017-Aug-18 18:00N 47°24' W 006°00'6 6.0 300 / 141021.9 16.916.718.4
2017-Aug-18 17:00N 47°18' W 006°00'4 4.1 300 / 151021.6 16.916.718.2
2017-Aug-18 16:00N 47°18' W 005°54'7 7.2 300 / 161021.2 17.216.018.4
2017-Aug-18 15:00N 47°24' W 005°48'0 0.0 300 / 161020.7 17.216.518.4
2017-Aug-18 14:00N 47°24' W 005°48'7 7.2 290 / 181020.7 17.015.218.9
2017-Aug-18 13:00N 47°18' W 005°54'6 6.0 290 / 141020.2 17.016.218.4
2017-Aug-18 12:00N 47°24' W 005°54'4 4.1 290 / 151019.9 17.715.518.4
2017-Aug-18 11:00N 47°24' W 006°00'0 0.0 300 / 151019.4 23.214.918.5
2017-Aug-18 10:00N 47°24' W 006°00'4 4.1 300 / 161019.3 23.213.418.4
2017-Aug-18 09:00N 47°24' W 006°06'0 0.0 300 / 121019.1 18.518.418.0
2017-Aug-18 08:00N 47°24' W 006°06'4 4.1 290 / 111018.4 17.4 17.7
2017-Aug-18 07:00N 47°24' W 006°12'0 0.0 310 / 131017.5 16.7 17.9
2017-Aug-18 06:00N 47°24' W 006°12'4 4.1 310 / 101016.6 17.0 18.2
2017-Aug-18 05:00N 47°24' W 006°06'0 0.0 300 / 91016.1 16.9 18.4
2017-Aug-18 04:00N 47°24' W 006°06'7 7.2 260 / 111015.8 17.4 18.7
2017-Aug-18 03:00N 47°18' W 006°00'7 7.2 250 / 121016.2 17.5 18.7
2017-Aug-18 02:00N 47°24' W 005°54'0 0.0 260 / 121016.1 17.5 18.7
2017-Aug-18 01:00N 47°24' W 005°54'6 6.0 250 / 121016.1 17.7 18.4
2017-Aug-18 00:00N 47°18' W 005°54'7 7.2 260 / 101016.4 17.9 18.7
2017-Aug-17 23:00N 47°24' W 006°00'4 4.1 260 / 131016.6 21.7 18.9
2017-Aug-17 22:00N 47°24' W 006°06'0 0.0 250 / 121016.6 17.9 18.9
2017-Aug-17 21:00N 47°24' W 006°06'4 4.1 240 / 111016.5 17.7 18.5
2017-Aug-17 20:00N 47°24' W 006°12'0 0.0 250 / 101016.3 17.7 18.4
2017-Aug-17 19:00N 47°24' W 006°12'0 0.0 230 / 81016.1 17.7 18.9
2017-Aug-17 18:00N 47°24' W 006°12'4 4.1 200 / 81016.4 17.7 18.7
2017-Aug-17 17:00N 47°24' W 006°06'0 0.0 200 / 91016.4 17.7 18.7
2017-Aug-17 16:00N 47°24' W 006°06'4 4.1 210 / 81016.6 18.0 18.9
2017-Aug-17 15:00N 47°24' W 006°00'4 4.1 230 / 81016.9 18.0 18.7
2017-Aug-17 14:00N 47°24' W 005°54'4 4.1 230 / 91016.6 17.9 18.7
2017-Aug-17 13:00N 47°24' W 006°00'6 6.0 230 / 91016.7 17.9 18.5
2017-Aug-17 12:00N 47°30' W 006°00'4 4.1 220 / 101016.8 17.7 18.0
2017-Aug-17 11:00N 47°30' W 006°06'0 0.0 240 / 81016.7 17.2 17.7
2017-Aug-17 10:00N 47°30' W 006°06'4 4.1 230 / 91016.7 17.4 17.9
2017-Aug-17 09:00N 47°30' W 006°12'6 6.0 210 / 81016.7 17.4 17.9
2017-Aug-17 08:00N 47°24' W 006°12'4 4.1 220 / 111016.8 17.4 17.7
2017-Aug-17 07:00N 47°24' W 006°06'0 0.0 230 / 121016.4 17.4 17.7
2017-Aug-17 06:00N 47°24' W 006°06'4 4.1 250 / 101015.8 17.5 18.2
2017-Aug-17 05:00N 47°24' W 006°00'4 4.1 230 / 121015.5 17.7 18.2
2017-Aug-17 04:00N 47°24' W 005°54'0 0.0 230 / 151015.4 17.7 18.2
2017-Aug-17 03:00N 47°24' W 005°54'4 4.1 230 / 161015.6 17.7 18.2
2017-Aug-17 02:00N 47°24' W 005°48'0 0.0 260 / 171015.7 17.5 18.0
2017-Aug-17 01:00N 47°24' W 005°48'7 7.2 260 / 181015.5 17.7 18.0
2017-Aug-17 00:00N 47°30' W 005°54'0 0.0 230 / 171015.4 17.9 17.9
2017-Aug-16 23:00N 47°30' W 005°54'4 4.1 210 / 231015.5 17.9 17.9
2017-Aug-16 22:00N 47°30' W 005°48'6 6.0 200 / 201016.1 17.7 17.9
2017-Aug-16 21:00N 47°24' W 005°48'0 0.0 210 / 191016.5 17.7 18.0
2017-Aug-16 20:00N 47°24' W 005°48'4 4.1 200 / 201016.6 17.9 18.4
2017-Aug-16 19:00N 47°24' W 005°42'4 4.1 200 / 191017.1 17.9 18.4
2017-Aug-16 18:00N 47°24' W 005°36'0 0.0 210 / 181017.5 17.9 18.5
2017-Aug-16 17:00N 47°24' W 005°36'1010.1 200 / 191018.0 17.9 18.9
2017-Aug-16 16:00N 47°30' W 005°24'1212.2 190 / 191018.3 17.2 18.9
2017-Aug-16 15:00N 47°30' W 005°06'1010.1 180 / 151019.1 17.9 18.9
2017-Aug-16 14:00N 47°36' W 004°54'1010.1 170 / 131019.6 17.5 18.9
2017-Aug-16 13:00N 47°42' W 004°42'8 8.1 170 / 141020.2 17.4 18.2
2017-Aug-16 12:00N 47°42' W 004°30'1010.1 180 / 91020.7 16.9 17.7
2017-Aug-16 11:00N 47°48' W 004°18'   200 / 101020.9 17.2 17.2

Dump ship's entire track history